sensor_id;sensor_type;location;lat;lon;timestamp;P1;durP1;ratioP1;P2;durP2;ratioP2
19193;SDS011;9729;52.296;13.260;2023-07-13T00:00:27;8.13;;;4.23;;
19193;SDS011;9729;52.296;13.260;2023-07-13T00:02:53;8.97;;;4.50;;
19193;SDS011;9729;52.296;13.260;2023-07-13T00:05:19;4.90;;;4.10;;
19193;SDS011;9729;52.296;13.260;2023-07-13T00:07:46;8.53;;;4.73;;
19193;SDS011;9729;52.296;13.260;2023-07-13T00:10:13;5.43;;;4.33;;
19193;SDS011;9729;52.296;13.260;2023-07-13T00:12:39;5.70;;;4.63;;
19193;SDS011;9729;52.296;13.260;2023-07-13T00:15:07;7.63;;;3.80;;
19193;SDS011;9729;52.296;13.260;2023-07-13T00:17:37;7.63;;;4.87;;
19193;SDS011;9729;52.296;13.260;2023-07-13T00:20:04;7.13;;;4.63;;
19193;SDS011;9729;52.296;13.260;2023-07-13T00:22:32;4.90;;;4.50;;
19193;SDS011;9729;52.296;13.260;2023-07-13T00:24:59;4.87;;;4.37;;
19193;SDS011;9729;52.296;13.260;2023-07-13T00:27:25;8.47;;;4.90;;
19193;SDS011;9729;52.296;13.260;2023-07-13T00:29:52;7.77;;;4.37;;
19193;SDS011;9729;52.296;13.260;2023-07-13T00:32:18;7.53;;;5.20;;
19193;SDS011;9729;52.296;13.260;2023-07-13T00:34:46;5.80;;;4.13;;
19193;SDS011;9729;52.296;13.260;2023-07-13T00:37:13;14.07;;;5.10;;
19193;SDS011;9729;52.296;13.260;2023-07-13T00:39:39;10.97;;;5.10;;
19193;SDS011;9729;52.296;13.260;2023-07-13T00:42:05;7.40;;;4.13;;
19193;SDS011;9729;52.296;13.260;2023-07-13T00:44:32;9.37;;;4.37;;
19193;SDS011;9729;52.296;13.260;2023-07-13T00:46:58;7.17;;;4.67;;
19193;SDS011;9729;52.296;13.260;2023-07-13T00:49:26;11.10;;;4.60;;
19193;SDS011;9729;52.296;13.260;2023-07-13T00:51:55;6.73;;;4.83;;
19193;SDS011;9729;52.296;13.260;2023-07-13T00:54:24;8.60;;;4.87;;
19193;SDS011;9729;52.296;13.260;2023-07-13T00:56:53;6.13;;;4.77;;
19193;SDS011;9729;52.296;13.260;2023-07-13T00:59:22;9.13;;;4.63;;
19193;SDS011;9729;52.296;13.260;2023-07-13T01:01:50;6.47;;;4.77;;
19193;SDS011;9729;52.296;13.260;2023-07-13T01:04:16;8.70;;;5.17;;
19193;SDS011;9729;52.296;13.260;2023-07-13T01:06:43;8.73;;;5.33;;
19193;SDS011;9729;52.296;13.260;2023-07-13T01:09:11;5.70;;;4.37;;
19193;SDS011;9729;52.296;13.260;2023-07-13T01:11:38;6.63;;;5.20;;
19193;SDS011;9729;52.296;13.260;2023-07-13T01:14:06;5.57;;;5.00;;
19193;SDS011;9729;52.296;13.260;2023-07-13T01:16:33;6.83;;;4.57;;
19193;SDS011;9729;52.296;13.260;2023-07-13T01:19:00;7.87;;;4.50;;
19193;SDS011;9729;52.296;13.260;2023-07-13T01:21:31;8.77;;;4.90;;
19193;SDS011;9729;52.296;13.260;2023-07-13T01:23:58;8.43;;;5.13;;
19193;SDS011;9729;52.296;13.260;2023-07-13T01:26:25;5.13;;;4.27;;
19193;SDS011;9729;52.296;13.260;2023-07-13T01:28:52;10.37;;;4.97;;
19193;SDS011;9729;52.296;13.260;2023-07-13T01:31:18;6.67;;;4.90;;
19193;SDS011;9729;52.296;13.260;2023-07-13T01:33:44;9.03;;;4.97;;
19193;SDS011;9729;52.296;13.260;2023-07-13T01:36:11;5.10;;;4.60;;
19193;SDS011;9729;52.296;13.260;2023-07-13T01:38:38;6.57;;;4.77;;
19193;SDS011;9729;52.296;13.260;2023-07-13T01:41:05;5.67;;;4.50;;
19193;SDS011;9729;52.296;13.260;2023-07-13T01:43:32;6.70;;;4.47;;
19193;SDS011;9729;52.296;13.260;2023-07-13T01:45:58;8.30;;;4.80;;
19193;SDS011;9729;52.296;13.260;2023-07-13T01:48:24;7.20;;;4.50;;
19193;SDS011;9729;52.296;13.260;2023-07-13T01:50:50;7.87;;;5.07;;
19193;SDS011;9729;52.296;13.260;2023-07-13T01:53:18;6.07;;;4.63;;
19193;SDS011;9729;52.296;13.260;2023-07-13T01:55:45;9.60;;;4.67;;
19193;SDS011;9729;52.296;13.260;2023-07-13T01:58:12;6.57;;;4.60;;
19193;SDS011;9729;52.296;13.260;2023-07-13T02:00:38;7.43;;;4.90;;
19193;SDS011;9729;52.296;13.260;2023-07-13T02:03:04;5.83;;;4.57;;
19193;SDS011;9729;52.296;13.260;2023-07-13T02:05:31;7.77;;;4.83;;
19193;SDS011;9729;52.296;13.260;2023-07-13T02:07:57;5.77;;;5.17;;
19193;SDS011;9729;52.296;13.260;2023-07-13T02:10:24;6.53;;;4.87;;
19193;SDS011;9729;52.296;13.260;2023-07-13T02:12:52;6.90;;;5.17;;
19193;SDS011;9729;52.296;13.260;2023-07-13T02:15:18;9.40;;;5.10;;
19193;SDS011;9729;52.296;13.260;2023-07-13T02:17:44;8.93;;;4.97;;
19193;SDS011;9729;52.296;13.260;2023-07-13T02:20:11;6.97;;;5.60;;
19193;SDS011;9729;52.296;13.260;2023-07-13T02:22:37;8.57;;;4.77;;
19193;SDS011;9729;52.296;13.260;2023-07-13T02:25:04;8.37;;;5.63;;
19193;SDS011;9729;52.296;13.260;2023-07-13T02:27:31;7.43;;;5.63;;
19193;SDS011;9729;52.296;13.260;2023-07-13T02:29:58;7.57;;;5.07;;
19193;SDS011;9729;52.296;13.260;2023-07-13T02:32:25;6.80;;;5.00;;
19193;SDS011;9729;52.296;13.260;2023-07-13T02:34:51;6.33;;;5.03;;
19193;SDS011;9729;52.296;13.260;2023-07-13T02:37:18;6.40;;;5.40;;
19193;SDS011;9729;52.296;13.260;2023-07-13T02:39:44;8.10;;;5.27;;
19193;SDS011;9729;52.296;13.260;2023-07-13T02:42:12;5.97;;;5.20;;
19193;SDS011;9729;52.296;13.260;2023-07-13T02:44:39;7.57;;;5.87;;
19193;SDS011;9729;52.296;13.260;2023-07-13T02:47:07;9.57;;;5.50;;
19193;SDS011;9729;52.296;13.260;2023-07-13T02:49:33;8.73;;;4.83;;
19193;SDS011;9729;52.296;13.260;2023-07-13T02:51:59;9.30;;;5.70;;
19193;SDS011;9729;52.296;13.260;2023-07-13T02:54:26;8.73;;;5.30;;
19193;SDS011;9729;52.296;13.260;2023-07-13T02:56:52;10.77;;;5.50;;
19193;SDS011;9729;52.296;13.260;2023-07-13T02:59:18;8.90;;;6.20;;
19193;SDS011;9729;52.296;13.260;2023-07-13T03:01:45;6.80;;;5.30;;
19193;SDS011;9729;52.296;13.260;2023-07-13T03:04:12;15.17;;;6.40;;
19193;SDS011;9729;52.296;13.260;2023-07-13T03:06:39;13.13;;;6.23;;
19193;SDS011;9729;52.296;13.260;2023-07-13T03:09:05;8.23;;;5.57;;
19193;SDS011;9729;52.296;13.260;2023-07-13T03:11:31;9.97;;;5.90;;
19193;SDS011;9729;52.296;13.260;2023-07-13T03:13:58;11.17;;;6.03;;
19193;SDS011;9729;52.296;13.260;2023-07-13T03:16:24;10.77;;;5.70;;
19193;SDS011;9729;52.296;13.260;2023-07-13T03:18:50;12.87;;;5.77;;
19193;SDS011;9729;52.296;13.260;2023-07-13T03:21:18;9.90;;;6.23;;
19193;SDS011;9729;52.296;13.260;2023-07-13T03:23:44;9.40;;;6.23;;
19193;SDS011;9729;52.296;13.260;2023-07-13T03:26:13;21.30;;;6.37;;
19193;SDS011;9729;52.296;13.260;2023-07-13T03:28:40;7.53;;;6.53;;
19193;SDS011;9729;52.296;13.260;2023-07-13T03:31:08;10.43;;;5.80;;
19193;SDS011;9729;52.296;13.260;2023-07-13T03:33:36;7.40;;;6.03;;
19193;SDS011;9729;52.296;13.260;2023-07-13T03:36:03;11.63;;;6.07;;
19193;SDS011;9729;52.296;13.260;2023-07-13T03:38:32;9.17;;;5.97;;
19193;SDS011;9729;52.296;13.260;2023-07-13T03:40:58;9.67;;;5.70;;
19193;SDS011;9729;52.296;13.260;2023-07-13T03:43:25;11.73;;;6.60;;
19193;SDS011;9729;52.296;13.260;2023-07-13T03:45:51;9.03;;;6.20;;
19193;SDS011;9729;52.296;13.260;2023-07-13T03:48:17;8.17;;;5.83;;
19193;SDS011;9729;52.296;13.260;2023-07-13T03:50:44;6.60;;;5.93;;
19193;SDS011;9729;52.296;13.260;2023-07-13T03:53:10;9.57;;;6.80;;
19193;SDS011;9729;52.296;13.260;2023-07-13T03:55:38;7.50;;;5.60;;
19193;SDS011;9729;52.296;13.260;2023-07-13T03:58:23;7.70;;;5.13;;
19193;SDS011;9729;52.296;13.260;2023-07-13T04:00:52;7.07;;;6.00;;
19193;SDS011;9729;52.296;13.260;2023-07-13T04:03:18;10.70;;;5.73;;
19193;SDS011;9729;52.296;13.260;2023-07-13T04:05:45;7.73;;;5.73;;
19193;SDS011;9729;52.296;13.260;2023-07-13T04:08:11;7.27;;;5.47;;
19193;SDS011;9729;52.296;13.260;2023-07-13T04:10:39;6.80;;;5.13;;
19193;SDS011;9729;52.296;13.260;2023-07-13T04:13:05;7.07;;;4.83;;
19193;SDS011;9729;52.296;13.260;2023-07-13T04:15:32;6.00;;;5.30;;
19193;SDS011;9729;52.296;13.260;2023-07-13T04:17:59;11.18;;;6.20;;
19193;SDS011;9729;52.296;13.260;2023-07-13T04:20:25;14.33;;;5.53;;
19193;SDS011;9729;52.296;13.260;2023-07-13T04:22:52;8.37;;;5.20;;
19193;SDS011;9729;52.296;13.260;2023-07-13T04:25:19;12.50;;;5.80;;
19193;SDS011;9729;52.296;13.260;2023-07-13T04:27:47;11.27;;;5.47;;
19193;SDS011;9729;52.296;13.260;2023-07-13T04:30:15;7.43;;;5.30;;
19193;SDS011;9729;52.296;13.260;2023-07-13T04:32:41;8.83;;;5.73;;
19193;SDS011;9729;52.296;13.260;2023-07-13T04:35:08;5.80;;;5.17;;
19193;SDS011;9729;52.296;13.260;2023-07-13T04:37:34;8.63;;;5.30;;
19193;SDS011;9729;52.296;13.260;2023-07-13T04:40:01;6.57;;;5.17;;
19193;SDS011;9729;52.296;13.260;2023-07-13T04:42:28;5.67;;;4.27;;
19193;SDS011;9729;52.296;13.260;2023-07-13T04:44:56;9.27;;;4.80;;
19193;SDS011;9729;52.296;13.260;2023-07-13T04:47:22;7.03;;;4.57;;
19193;SDS011;9729;52.296;13.260;2023-07-13T04:49:48;7.80;;;4.17;;
19193;SDS011;9729;52.296;13.260;2023-07-13T04:52:15;8.43;;;3.90;;
19193;SDS011;9729;52.296;13.260;2023-07-13T04:54:41;9.63;;;4.03;;
19193;SDS011;9729;52.296;13.260;2023-07-13T04:57:07;10.50;;;4.13;;
19193;SDS011;9729;52.296;13.260;2023-07-13T04:59:34;5.70;;;3.90;;
19193;SDS011;9729;52.296;13.260;2023-07-13T05:02:02;6.63;;;4.00;;
19193;SDS011;9729;52.296;13.260;2023-07-13T05:04:28;11.67;;;4.03;;
19193;SDS011;9729;52.296;13.260;2023-07-13T05:06:54;7.00;;;3.80;;
19193;SDS011;9729;52.296;13.260;2023-07-13T05:09:21;7.90;;;3.77;;
19193;SDS011;9729;52.296;13.260;2023-07-13T05:11:47;6.27;;;4.03;;
19193;SDS011;9729;52.296;13.260;2023-07-13T05:14:13;4.13;;;3.53;;
19193;SDS011;9729;52.296;13.260;2023-07-13T05:16:41;6.63;;;4.00;;
19193;SDS011;9729;52.296;13.260;2023-07-13T05:19:09;8.80;;;4.37;;
19193;SDS011;9729;52.296;13.260;2023-07-13T05:21:35;5.60;;;3.40;;
19193;SDS011;9729;52.296;13.260;2023-07-13T05:24:02;4.93;;;3.20;;
19193;SDS011;9729;52.296;13.260;2023-07-13T05:26:28;6.50;;;3.45;;
19193;SDS011;9729;52.296;13.260;2023-07-13T05:28:55;5.97;;;3.55;;
19193;SDS011;9729;52.296;13.260;2023-07-13T05:31:21;4.47;;;3.30;;
19193;SDS011;9729;52.296;13.260;2023-07-13T05:33:47;5.38;;;3.08;;
19193;SDS011;9729;52.296;13.260;2023-07-13T05:36:15;3.92;;;3.10;;
19193;SDS011;9729;52.296;13.260;2023-07-13T05:38:41;5.50;;;3.50;;
19193;SDS011;9729;52.296;13.260;2023-07-13T05:41:08;6.13;;;3.08;;
19193;SDS011;9729;52.296;13.260;2023-07-13T05:43:34;5.70;;;3.03;;
19193;SDS011;9729;52.296;13.260;2023-07-13T05:46:00;3.63;;;2.92;;
19193;SDS011;9729;52.296;13.260;2023-07-13T05:48:27;6.47;;;3.10;;
19193;SDS011;9729;52.296;13.260;2023-07-13T05:50:53;6.88;;;3.35;;
19193;SDS011;9729;52.296;13.260;2023-07-13T05:53:21;3.10;;;2.85;;
19193;SDS011;9729;52.296;13.260;2023-07-13T05:55:47;7.30;;;3.17;;
19193;SDS011;9729;52.296;13.260;2023-07-13T05:58:15;7.75;;;3.30;;
19193;SDS011;9729;52.296;13.260;2023-07-13T06:00:42;6.13;;;3.30;;
19193;SDS011;9729;52.296;13.260;2023-07-13T06:03:08;4.30;;;3.22;;
19193;SDS011;9729;52.296;13.260;2023-07-13T06:05:35;5.00;;;3.13;;
19193;SDS011;9729;52.296;13.260;2023-07-13T06:08:03;5.50;;;3.40;;
19193;SDS011;9729;52.296;13.260;2023-07-13T06:10:33;8.47;;;3.83;;
19193;SDS011;9729;52.296;13.260;2023-07-13T06:12:59;7.23;;;3.50;;
19193;SDS011;9729;52.296;13.260;2023-07-13T06:15:26;6.27;;;3.93;;
19193;SDS011;9729;52.296;13.260;2023-07-13T06:17:52;6.97;;;3.70;;
19193;SDS011;9729;52.296;13.260;2023-07-13T06:20:19;4.70;;;4.30;;
19193;SDS011;9729;52.296;13.260;2023-07-13T06:22:45;4.33;;;3.30;;
19193;SDS011;9729;52.296;13.260;2023-07-13T06:25:11;9.77;;;4.20;;
19193;SDS011;9729;52.296;13.260;2023-07-13T06:27:39;9.90;;;4.07;;
19193;SDS011;9729;52.296;13.260;2023-07-13T06:30:06;5.03;;;3.53;;
19193;SDS011;9729;52.296;13.260;2023-07-13T06:32:33;5.43;;;3.43;;
19193;SDS011;9729;52.296;13.260;2023-07-13T06:34:59;7.23;;;3.30;;
19193;SDS011;9729;52.296;13.260;2023-07-13T06:37:25;5.03;;;3.87;;
19193;SDS011;9729;52.296;13.260;2023-07-13T06:39:51;6.13;;;3.60;;
19193;SDS011;9729;52.296;13.260;2023-07-13T06:42:18;3.70;;;3.30;;
19193;SDS011;9729;52.296;13.260;2023-07-13T06:44:45;5.90;;;3.33;;
19193;SDS011;9729;52.296;13.260;2023-07-13T06:47:12;7.90;;;3.43;;
19193;SDS011;9729;52.296;13.260;2023-07-13T06:49:38;4.70;;;3.20;;
19193;SDS011;9729;52.296;13.260;2023-07-13T06:52:05;8.83;;;3.30;;
19193;SDS011;9729;52.296;13.260;2023-07-13T06:54:32;3.10;;;2.80;;
19193;SDS011;9729;52.296;13.260;2023-07-13T06:56:58;3.77;;;2.50;;
19193;SDS011;9729;52.296;13.260;2023-07-13T06:59:24;4.07;;;3.07;;
19193;SDS011;9729;52.296;13.260;2023-07-13T07:01:52;5.43;;;2.90;;
19193;SDS011;9729;52.296;13.260;2023-07-13T07:04:18;5.03;;;2.80;;
19193;SDS011;9729;52.296;13.260;2023-07-13T07:06:44;4.53;;;2.60;;
19193;SDS011;9729;52.296;13.260;2023-07-13T07:09:11;5.30;;;2.70;;
19193;SDS011;9729;52.296;13.260;2023-07-13T07:11:38;7.27;;;2.80;;
19193;SDS011;9729;52.296;13.260;2023-07-13T07:14:05;9.00;;;3.30;;
19193;SDS011;9729;52.296;13.260;2023-07-13T07:16:31;8.07;;;3.07;;
19193;SDS011;9729;52.296;13.260;2023-07-13T07:18:58;4.23;;;2.80;;
19193;SDS011;9729;52.296;13.260;2023-07-13T07:21:25;3.80;;;2.80;;
19193;SDS011;9729;52.296;13.260;2023-07-13T07:23:52;5.60;;;2.70;;
19193;SDS011;9729;52.296;13.260;2023-07-13T07:26:18;4.37;;;2.90;;
19193;SDS011;9729;52.296;13.260;2023-07-13T07:28:45;6.63;;;3.47;;
19193;SDS011;9729;52.296;13.260;2023-07-13T07:31:11;4.50;;;2.90;;
19193;SDS011;9729;52.296;13.260;2023-07-13T07:33:37;4.63;;;3.10;;
19193;SDS011;9729;52.296;13.260;2023-07-13T07:36:05;4.07;;;2.67;;
19193;SDS011;9729;52.296;13.260;2023-07-13T07:38:31;4.23;;;3.00;;
19193;SDS011;9729;52.296;13.260;2023-07-13T07:41:00;3.73;;;2.60;;
19193;SDS011;9729;52.296;13.260;2023-07-13T07:43:28;5.77;;;2.80;;
19193;SDS011;9729;52.296;13.260;2023-07-13T07:45:55;6.03;;;2.80;;
19193;SDS011;9729;52.296;13.260;2023-07-13T07:48:21;5.63;;;2.93;;
19193;SDS011;9729;52.296;13.260;2023-07-13T07:50:48;4.70;;;2.83;;
19193;SDS011;9729;52.296;13.260;2023-07-13T07:53:15;5.43;;;2.70;;
19193;SDS011;9729;52.296;13.260;2023-07-13T07:55:42;6.87;;;2.90;;
19193;SDS011;9729;52.296;13.260;2023-07-13T07:58:08;6.50;;;2.77;;
19193;SDS011;9729;52.296;13.260;2023-07-13T08:00:35;6.80;;;3.00;;
19193;SDS011;9729;52.296;13.260;2023-07-13T08:03:01;3.63;;;2.50;;
19193;SDS011;9729;52.296;13.260;2023-07-13T08:05:27;7.25;;;3.25;;
19193;SDS011;9729;52.296;13.260;2023-07-13T08:07:54;3.83;;;2.75;;
19193;SDS011;9729;52.296;13.260;2023-07-13T08:10:21;5.40;;;2.60;;
19193;SDS011;9729;52.296;13.260;2023-07-13T08:12:48;7.60;;;2.97;;
19193;SDS011;9729;52.296;13.260;2023-07-13T08:15:15;2.67;;;2.30;;
19193;SDS011;9729;52.296;13.260;2023-07-13T08:17:42;6.13;;;2.53;;
19193;SDS011;9729;52.296;13.260;2023-07-13T08:20:09;6.15;;;2.83;;
19193;SDS011;9729;52.296;13.260;2023-07-13T08:22:36;2.50;;;2.30;;
19193;SDS011;9729;52.296;13.260;2023-07-13T08:25:02;2.65;;;2.40;;
19193;SDS011;9729;52.296;13.260;2023-07-13T08:27:30;3.45;;;2.45;;
19193;SDS011;9729;52.296;13.260;2023-07-13T08:29:57;2.60;;;2.40;;
19193;SDS011;9729;52.296;13.260;2023-07-13T08:32:23;4.80;;;2.42;;
19193;SDS011;9729;52.296;13.260;2023-07-13T08:34:50;4.95;;;2.70;;
19193;SDS011;9729;52.296;13.260;2023-07-13T08:37:17;5.85;;;2.33;;
19193;SDS011;9729;52.296;13.260;2023-07-13T08:39:44;6.07;;;3.30;;
19193;SDS011;9729;52.296;13.260;2023-07-13T08:42:12;4.95;;;2.58;;
19193;SDS011;9729;52.296;13.260;2023-07-13T08:44:47;6.03;;;2.90;;
19193;SDS011;9729;52.296;13.260;2023-07-13T08:47:17;4.28;;;2.63;;
19193;SDS011;9729;52.296;13.260;2023-07-13T08:49:47;6.45;;;2.60;;
19193;SDS011;9729;52.296;13.260;2023-07-13T08:52:15;4.22;;;2.47;;
19193;SDS011;9729;52.296;13.260;2023-07-13T08:54:47;6.00;;;2.80;;
19193;SDS011;9729;52.296;13.260;2023-07-13T08:57:17;6.30;;;2.78;;
19193;SDS011;9729;52.296;13.260;2023-07-13T08:59:46;8.13;;;2.97;;
19193;SDS011;9729;52.296;13.260;2023-07-13T09:02:18;2.92;;;2.60;;
19193;SDS011;9729;52.296;13.260;2023-07-13T09:04:49;4.95;;;2.90;;
19193;SDS011;9729;52.296;13.260;2023-07-13T09:07:21;5.57;;;2.92;;
19193;SDS011;9729;52.296;13.260;2023-07-13T09:09:57;3.38;;;2.60;;
19193;SDS011;9729;52.296;13.260;2023-07-13T09:12:31;4.65;;;2.80;;
19193;SDS011;9729;52.296;13.260;2023-07-13T09:15:24;3.10;;;2.60;;
19193;SDS011;9729;52.296;13.260;2023-07-13T09:17:52;9.38;;;2.67;;
19193;SDS011;9729;52.296;13.260;2023-07-13T09:20:22;4.45;;;2.70;;
19193;SDS011;9729;52.296;13.260;2023-07-13T09:22:52;7.72;;;3.75;;
19193;SDS011;9729;52.296;13.260;2023-07-13T09:25:21;3.38;;;2.72;;
19193;SDS011;9729;52.296;13.260;2023-07-13T09:27:52;7.32;;;2.38;;
19193;SDS011;9729;52.296;13.260;2023-07-13T09:30:27;4.18;;;2.40;;
19193;SDS011;9729;52.296;13.260;2023-07-13T09:32:59;2.95;;;2.65;;
19193;SDS011;9729;52.296;13.260;2023-07-13T09:35:26;7.32;;;2.75;;
19193;SDS011;9729;52.296;13.260;2023-07-13T09:37:57;6.88;;;2.70;;
19193;SDS011;9729;52.296;13.260;2023-07-13T09:40:25;6.72;;;2.72;;
19193;SDS011;9729;52.296;13.260;2023-07-13T09:42:56;5.35;;;2.53;;
19193;SDS011;9729;52.296;13.260;2023-07-13T09:45:29;4.97;;;2.92;;
19193;SDS011;9729;52.296;13.260;2023-07-13T09:48:02;9.82;;;2.78;;
19193;SDS011;9729;52.296;13.260;2023-07-13T09:50:30;6.15;;;2.70;;
19193;SDS011;9729;52.296;13.260;2023-07-13T09:52:56;5.15;;;3.15;;
19193;SDS011;9729;52.296;13.260;2023-07-13T09:55:26;4.05;;;3.10;;
19193;SDS011;9729;52.296;13.260;2023-07-13T09:57:53;6.30;;;2.92;;
19193;SDS011;9729;52.296;13.260;2023-07-13T10:00:20;4.45;;;3.05;;
19193;SDS011;9729;52.296;13.260;2023-07-13T10:02:51;4.60;;;2.70;;
19193;SDS011;9729;52.296;13.260;2023-07-13T10:05:24;4.22;;;2.65;;
19193;SDS011;9729;52.296;13.260;2023-07-13T10:07:51;6.82;;;3.20;;
19193;SDS011;9729;52.296;13.260;2023-07-13T10:10:18;5.03;;;3.30;;
19193;SDS011;9729;52.296;13.260;2023-07-13T10:12:47;5.53;;;3.05;;
19193;SDS011;9729;52.296;13.260;2023-07-13T10:15:15;6.55;;;3.47;;
19193;SDS011;9729;52.296;13.260;2023-07-13T10:17:43;4.82;;;3.03;;
19193;SDS011;9729;52.296;13.260;2023-07-13T10:20:11;8.60;;;3.60;;
19193;SDS011;9729;52.296;13.260;2023-07-13T10:22:39;6.32;;;3.20;;
19193;SDS011;9729;52.296;13.260;2023-07-13T10:25:13;7.30;;;3.58;;
19193;SDS011;9729;52.296;13.260;2023-07-13T10:27:43;4.30;;;3.10;;
19193;SDS011;9729;52.296;13.260;2023-07-13T10:30:12;7.75;;;3.40;;
19193;SDS011;9729;52.296;13.260;2023-07-13T10:32:41;11.68;;;3.28;;
19193;SDS011;9729;52.296;13.260;2023-07-13T10:35:08;7.55;;;3.45;;
19193;SDS011;9729;52.296;13.260;2023-07-13T10:37:42;7.30;;;3.33;;
19193;SDS011;9729;52.296;13.260;2023-07-13T10:40:12;6.00;;;3.40;;
19193;SDS011;9729;52.296;13.260;2023-07-13T10:42:39;9.18;;;3.28;;
19193;SDS011;9729;52.296;13.260;2023-07-13T10:45:12;9.85;;;3.17;;
19193;SDS011;9729;52.296;13.260;2023-07-13T10:47:40;5.82;;;3.15;;
19193;SDS011;9729;52.296;13.260;2023-07-13T10:50:07;5.25;;;3.30;;
19193;SDS011;9729;52.296;13.260;2023-07-13T10:52:41;6.03;;;3.60;;
19193;SDS011;9729;52.296;13.260;2023-07-13T10:57:59;3.97;;;3.58;;
19193;SDS011;9729;52.296;13.260;2023-07-13T11:00:26;8.55;;;3.17;;
19193;SDS011;9729;52.296;13.260;2023-07-13T11:02:56;9.30;;;3.90;;
19193;SDS011;9729;52.296;13.260;2023-07-13T11:05:25;6.70;;;3.50;;
19193;SDS011;9729;52.296;13.260;2023-07-13T11:07:56;5.22;;;3.70;;
19193;SDS011;9729;52.296;13.260;2023-07-13T11:10:47;8.38;;;3.72;;
19193;SDS011;9729;52.296;13.260;2023-07-13T11:16:26;6.53;;;3.42;;
19193;SDS011;9729;52.296;13.260;2023-07-13T11:19:18;8.15;;;3.78;;
19193;SDS011;9729;52.296;13.260;2023-07-13T11:22:10;9.50;;;3.40;;
19193;SDS011;9729;52.296;13.260;2023-07-13T11:27:50;6.80;;;3.45;;
19193;SDS011;9729;52.296;13.260;2023-07-13T11:30:32;7.60;;;3.67;;
19193;SDS011;9729;52.296;13.260;2023-07-13T11:33:02;6.60;;;3.42;;
19193;SDS011;9729;52.296;13.260;2023-07-13T11:35:33;7.25;;;3.33;;
19193;SDS011;9729;52.296;13.260;2023-07-13T11:38:03;4.50;;;3.03;;
19193;SDS011;9729;52.296;13.260;2023-07-13T11:40:38;5.25;;;3.55;;
19193;SDS011;9729;52.296;13.260;2023-07-13T11:43:06;5.03;;;3.67;;
19193;SDS011;9729;52.296;13.260;2023-07-13T11:45:33;4.65;;;3.40;;
19193;SDS011;9729;52.296;13.260;2023-07-13T11:47:59;6.28;;;2.97;;
19193;SDS011;9729;52.296;13.260;2023-07-13T11:50:26;10.30;;;3.60;;
19193;SDS011;9729;52.296;13.260;2023-07-13T11:52:53;5.32;;;3.28;;
19193;SDS011;9729;52.296;13.260;2023-07-13T11:55:21;5.00;;;3.25;;
19193;SDS011;9729;52.296;13.260;2023-07-13T11:57:49;5.22;;;3.22;;
19193;SDS011;9729;52.296;13.260;2023-07-13T12:00:21;3.53;;;3.00;;
19193;SDS011;9729;52.296;13.260;2023-07-13T12:02:49;6.05;;;2.80;;
19193;SDS011;9729;52.296;13.260;2023-07-13T12:05:17;4.03;;;3.00;;
19193;SDS011;9729;52.296;13.260;2023-07-13T12:07:45;4.55;;;3.25;;
19193;SDS011;9729;52.296;13.260;2023-07-13T12:10:16;3.67;;;3.25;;
19193;SDS011;9729;52.296;13.260;2023-07-13T12:12:48;3.08;;;2.80;;
19193;SDS011;9729;52.296;13.260;2023-07-13T12:15:17;8.90;;;3.05;;
19193;SDS011;9729;52.296;13.260;2023-07-13T12:17:45;7.07;;;3.05;;
19193;SDS011;9729;52.296;13.260;2023-07-13T12:20:17;4.25;;;2.95;;
19193;SDS011;9729;52.296;13.260;2023-07-13T12:22:46;6.63;;;3.53;;
19193;SDS011;9729;52.296;13.260;2023-07-13T12:25:13;4.97;;;2.80;;
19193;SDS011;9729;52.296;13.260;2023-07-13T12:27:39;4.60;;;2.85;;
19193;SDS011;9729;52.296;13.260;2023-07-13T12:30:20;5.07;;;2.80;;
19193;SDS011;9729;52.296;13.260;2023-07-13T12:32:55;9.82;;;3.10;;
19193;SDS011;9729;52.296;13.260;2023-07-13T12:35:23;5.32;;;2.53;;
19193;SDS011;9729;52.296;13.260;2023-07-13T12:37:50;6.72;;;2.72;;
19193;SDS011;9729;52.296;13.260;2023-07-13T12:40:17;3.58;;;2.45;;
19193;SDS011;9729;52.296;13.260;2023-07-13T12:42:47;4.38;;;3.10;;
19193;SDS011;9729;52.296;13.260;2023-07-13T12:45:16;4.38;;;2.50;;
19193;SDS011;9729;52.296;13.260;2023-07-13T12:47:47;7.25;;;3.25;;
19193;SDS011;9729;52.296;13.260;2023-07-13T12:50:15;12.13;;;3.22;;
19193;SDS011;9729;52.296;13.260;2023-07-13T12:52:43;5.15;;;2.70;;
19193;SDS011;9729;52.296;13.260;2023-07-13T12:55:11;8.63;;;2.70;;
19193;SDS011;9729;52.296;13.260;2023-07-13T12:57:40;2.85;;;2.45;;
19193;SDS011;9729;52.296;13.260;2023-07-13T13:00:24;3.92;;;2.63;;
19193;SDS011;9729;52.296;13.260;2023-07-13T13:02:53;14.68;;;3.55;;
19193;SDS011;9729;52.296;13.260;2023-07-13T13:05:21;4.45;;;2.55;;
19193;SDS011;9729;52.296;13.260;2023-07-13T13:07:48;3.33;;;2.15;;
19193;SDS011;9729;52.296;13.260;2023-07-13T13:10:14;7.22;;;2.53;;
19193;SDS011;9729;52.296;13.260;2023-07-13T13:12:41;6.60;;;2.25;;
19193;SDS011;9729;52.296;13.260;2023-07-13T13:15:08;3.47;;;2.30;;
19193;SDS011;9729;52.296;13.260;2023-07-13T13:17:36;2.45;;;2.20;;
19193;SDS011;9729;52.296;13.260;2023-07-13T13:20:11;15.45;;;3.03;;
19193;SDS011;9729;52.296;13.260;2023-07-13T13:22:41;5.85;;;2.28;;
19193;SDS011;9729;52.296;13.260;2023-07-13T13:25:08;3.70;;;2.92;;
19193;SDS011;9729;52.296;13.260;2023-07-13T13:27:36;3.45;;;2.08;;
19193;SDS011;9729;52.296;13.260;2023-07-13T13:30:03;2.85;;;2.30;;
19193;SDS011;9729;52.296;13.260;2023-07-13T13:32:33;5.60;;;2.50;;
19193;SDS011;9729;52.296;13.260;2023-07-13T13:35:00;2.85;;;1.85;;
19193;SDS011;9729;52.296;13.260;2023-07-13T13:37:27;2.67;;;1.90;;
19193;SDS011;9729;52.296;13.260;2023-07-13T13:39:54;11.02;;;2.72;;
19193;SDS011;9729;52.296;13.260;2023-07-13T13:42:20;3.63;;;2.10;;
19193;SDS011;9729;52.296;13.260;2023-07-13T13:44:49;4.47;;;2.20;;
19193;SDS011;9729;52.296;13.260;2023-07-13T13:47:20;3.22;;;2.20;;
19193;SDS011;9729;52.296;13.260;2023-07-13T13:49:54;3.83;;;2.30;;
19193;SDS011;9729;52.296;13.260;2023-07-13T13:52:21;2.85;;;2.20;;
19193;SDS011;9729;52.296;13.260;2023-07-13T13:54:48;4.60;;;2.28;;
19193;SDS011;9729;52.296;13.260;2023-07-13T13:57:15;4.35;;;2.20;;
19193;SDS011;9729;52.296;13.260;2023-07-13T13:59:41;4.15;;;2.25;;
19193;SDS011;9729;52.296;13.260;2023-07-13T14:02:11;4.90;;;2.33;;
19193;SDS011;9729;52.296;13.260;2023-07-13T14:04:49;6.25;;;2.90;;
19193;SDS011;9729;52.296;13.260;2023-07-13T14:07:16;2.50;;;2.28;;
19193;SDS011;9729;52.296;13.260;2023-07-13T14:09:43;6.93;;;2.38;;
19193;SDS011;9729;52.296;13.260;2023-07-13T14:12:10;5.35;;;2.47;;
19193;SDS011;9729;52.296;13.260;2023-07-13T14:14:38;7.55;;;2.40;;
19193;SDS011;9729;52.296;13.260;2023-07-13T14:17:08;4.10;;;2.50;;
19193;SDS011;9729;52.296;13.260;2023-07-13T14:19:41;6.15;;;3.08;;
19193;SDS011;9729;52.296;13.260;2023-07-13T14:22:07;2.45;;;2.17;;
19193;SDS011;9729;52.296;13.260;2023-07-13T14:24:34;3.50;;;2.25;;
19193;SDS011;9729;52.296;13.260;2023-07-13T14:27:00;17.40;;;2.70;;
19193;SDS011;9729;52.296;13.260;2023-07-13T14:29:28;15.05;;;2.88;;
19193;SDS011;9729;52.296;13.260;2023-07-13T14:31:57;4.72;;;2.15;;
19193;SDS011;9729;52.296;13.260;2023-07-13T14:34:23;4.55;;;2.38;;
19193;SDS011;9729;52.296;13.260;2023-07-13T14:36:50;5.20;;;2.10;;
19193;SDS011;9729;52.296;13.260;2023-07-13T14:39:17;3.28;;;1.98;;
19193;SDS011;9729;52.296;13.260;2023-07-13T14:41:44;2.60;;;2.05;;
19193;SDS011;9729;52.296;13.260;2023-07-13T14:44:11;5.18;;;2.30;;
19193;SDS011;9729;52.296;13.260;2023-07-13T14:46:39;3.83;;;1.98;;
19193;SDS011;9729;52.296;13.260;2023-07-13T14:49:11;3.15;;;2.17;;
19193;SDS011;9729;52.296;13.260;2023-07-13T14:51:41;7.70;;;2.25;;
19193;SDS011;9729;52.296;13.260;2023-07-13T14:54:08;5.65;;;2.20;;
19193;SDS011;9729;52.296;13.260;2023-07-13T14:56:36;6.60;;;2.00;;
19193;SDS011;9729;52.296;13.260;2023-07-13T14:59:03;3.28;;;2.05;;